MSR25C HKJK-HUEN
Flight info
| Callsign | MSR25C |
|---|---|
| Flight time | 0h 51m |
| Altitude | 34000 |
| Route | APKUB1A APKUB UQ293 IMPOG IMPOG1A |
| Aircraft | A320/M-SDE3FGHIRWY/LB1 |
Departure
| Time | 2026-04-26 15:02 |
|---|---|
| Airport | Jomo Kenyatta International Airport (HKJK) |
Arrival
| Time | 2026-04-26 15:54 |
|---|---|
| Airport | Entebbe International Airport (HUEN) |
| Time | Latitude | Longitude | Altitude | Speed | Heading |
|---|---|---|---|---|---|
| 2026-04-26 14:31 | -1.33248 | 36.92376 | 5339 ft | 0 kts | 106° |
| 2026-04-26 14:43 | -1.33248 | 36.92373 | 5339 ft | 2 kts | 106° |
| 2026-04-26 14:43 | -1.33243 | 36.92356 | 5339 ft | 3 kts | 108° |
| 2026-04-26 14:44 | -1.33237 | 36.92338 | 5340 ft | 3 kts | 108° |
| 2026-04-26 14:44 | -1.33234 | 36.92331 | 5341 ft | 0 kts | 108° |
| 2026-04-26 14:46 | -1.33233 | 36.92329 | 5341 ft | 1 kts | 108° |
| 2026-04-26 14:46 | -1.33233 | 36.92328 | 5341 ft | 0 kts | 108° |
| 2026-04-26 14:48 | -1.33230 | 36.92321 | 5342 ft | 2 kts | 95° |
| 2026-04-26 14:48 | -1.33234 | 36.92305 | 5341 ft | 3 kts | 60° |
| 2026-04-26 14:48 | -1.33240 | 36.92295 | 5339 ft | 2 kts | 40° |
| 2026-04-26 14:48 | -1.33255 | 36.92286 | 5340 ft | 3 kts | 8° |
| 2026-04-26 14:49 | -1.33271 | 36.92284 | 5339 ft | 2 kts | 356° |
| 2026-04-26 14:49 | -1.33275 | 36.92284 | 5339 ft | 0 kts | 356° |
| 2026-04-26 14:54 | -1.33267 | 36.92283 | 5339 ft | 4 kts | 355° |
| 2026-04-26 14:54 | -1.33215 | 36.92267 | 5340 ft | 11 kts | 332° |
| 2026-04-26 14:54 | -1.33136 | 36.92229 | 5341 ft | 14 kts | 342° |
| 2026-04-26 14:55 | -1.33030 | 36.92221 | 5339 ft | 16 kts | 359° |
| 2026-04-26 14:55 | -1.32926 | 36.92239 | 5339 ft | 14 kts | 18° |
| 2026-04-26 14:55 | -1.32836 | 36.92239 | 5341 ft | 14 kts | 336° |
| 2026-04-26 14:55 | -1.32783 | 36.92169 | 5339 ft | 13 kts | 271° |
| 2026-04-26 14:56 | -1.32833 | 36.92090 | 5340 ft | 15 kts | 232° |
| 2026-04-26 14:56 | -1.32904 | 36.91992 | 5340 ft | 18 kts | 234° |
| 2026-04-26 14:56 | -1.32978 | 36.91892 | 5341 ft | 15 kts | 234° |
| 2026-04-26 14:56 | -1.32980 | 36.91808 | 5341 ft | 13 kts | 319° |
| 2026-04-26 14:57 | -1.32933 | 36.91776 | 5339 ft | 4 kts | 324° |
| 2026-04-26 14:57 | -1.32909 | 36.91759 | 5341 ft | 5 kts | 324° |
| 2026-04-26 14:57 | -1.32868 | 36.91730 | 5339 ft | 9 kts | 324° |
| 2026-04-26 14:57 | -1.32832 | 36.91703 | 5339 ft | 0 kts | 325° |
| 2026-04-26 14:59 | -1.32830 | 36.91702 | 5339 ft | 3 kts | 325° |
| 2026-04-26 14:59 | -1.32780 | 36.91669 | 5340 ft | 11 kts | 328° |
| 2026-04-26 14:59 | -1.32724 | 36.91688 | 5341 ft | 7 kts | 53° |
| 2026-04-26 14:59 | -1.32723 | 36.91690 | 5341 ft | 0 kts | 53° |
| 2026-04-26 15:01 | -1.32711 | 36.91705 | 5339 ft | 10 kts | 53° |
| 2026-04-26 15:01 | -1.32524 | 36.91960 | 5337 ft | 80 kts | 53° |
| 2026-04-26 15:01 | -1.32078 | 36.92566 | 5343 ft | 134 kts | 53° |
| 2026-04-26 15:02 | -1.31431 | 36.93446 | 5340 ft | 179 kts | 56° |
| 2026-04-26 15:02 | -1.30705 | 36.94485 | 5874 ft | 182 kts | 57° |
| 2026-04-26 15:02 | -1.29952 | 36.95510 | 6498 ft | 184 kts | 55° |
| 2026-04-26 15:02 | -1.29135 | 36.96589 | 6629 ft | 208 kts | 54° |
| 2026-04-26 15:03 | -1.28196 | 36.97811 | 6720 ft | 235 kts | 54° |
| 2026-04-26 15:03 | -1.27169 | 36.99184 | 6805 ft | 266 kts | 55° |
| 2026-04-26 15:03 | -1.26021 | 37.00721 | 7234 ft | 281 kts | 54° |
| 2026-04-26 15:03 | -1.24845 | 37.02301 | 7942 ft | 286 kts | 54° |
| 2026-04-26 15:04 | -1.23582 | 37.03846 | 8674 ft | 289 kts | 44° |
| 2026-04-26 15:04 | -1.21852 | 37.04892 | 9383 ft | 295 kts | 19° |
| 2026-04-26 15:04 | -1.19804 | 37.05130 | 10096 ft | 301 kts | 355° |
| 2026-04-26 15:04 | -1.17804 | 37.04508 | 10671 ft | 310 kts | 330° |
| 2026-04-26 15:05 | -1.16177 | 37.03008 | 10919 ft | 330 kts | 303° |
| 2026-04-26 15:05 | -1.15521 | 37.01613 | 11061 ft | 341 kts | 285° |
| 2026-04-26 15:05 | -1.15232 | 36.98451 | 11732 ft | 349 kts | 271° |
| 2026-04-26 15:05 | -1.15119 | 36.95997 | 12221 ft | 357 kts | 273° |
| 2026-04-26 15:06 | -1.14954 | 36.93516 | 12833 ft | 360 kts | 274° |
| 2026-04-26 15:06 | -1.14765 | 36.91006 | 13377 ft | 365 kts | 274° |
| 2026-04-26 15:06 | -1.14568 | 36.88464 | 14002 ft | 367 kts | 274° |
| 2026-04-26 15:06 | -1.14375 | 36.85906 | 14496 ft | 372 kts | 274° |
| 2026-04-26 15:07 | -1.14012 | 36.80762 | 15576 ft | 377 kts | 274° |
| 2026-04-26 15:07 | -1.13836 | 36.78145 | 16085 ft | 379 kts | 274° |
| 2026-04-26 15:07 | -1.13661 | 36.75494 | 16557 ft | 384 kts | 274° |
| 2026-04-26 15:08 | -1.13486 | 36.72827 | 17074 ft | 386 kts | 274° |
| 2026-04-26 15:08 | -1.13308 | 36.70148 | 17608 ft | 388 kts | 274° |
| 2026-04-26 15:08 | -1.13128 | 36.67445 | 18165 ft | 390 kts | 274° |
| 2026-04-26 15:08 | -1.12946 | 36.64727 | 18620 ft | 394 kts | 274° |
| 2026-04-26 15:09 | -1.12763 | 36.61984 | 19050 ft | 397 kts | 274° |
| 2026-04-26 15:09 | -1.12579 | 36.59221 | 19480 ft | 399 kts | 274° |
| 2026-04-26 15:09 | -1.12395 | 36.56443 | 19936 ft | 402 kts | 274° |
| 2026-04-26 15:09 | -1.12212 | 36.53688 | 20357 ft | 404 kts | 274° |
| 2026-04-26 15:10 | -1.11958 | 36.50883 | 20816 ft | 406 kts | 282° |
| 2026-04-26 15:10 | -1.11454 | 36.49050 | 21087 ft | 407 kts | 291° |
| 2026-04-26 15:10 | -1.10147 | 36.45525 | 21674 ft | 410 kts | 291° |
| 2026-04-26 15:10 | -1.09137 | 36.42845 | 22117 ft | 413 kts | 292° |
| 2026-04-26 15:11 | -1.08113 | 36.40153 | 22549 ft | 416 kts | 292° |
| 2026-04-26 15:11 | -1.07081 | 36.37444 | 22993 ft | 418 kts | 292° |
| 2026-04-26 15:11 | -1.06047 | 36.34715 | 23421 ft | 421 kts | 292° |
| 2026-04-26 15:11 | -1.05013 | 36.31974 | 23825 ft | 423 kts | 292° |
| 2026-04-26 15:12 | -1.03977 | 36.29214 | 24156 ft | 425 kts | 292° |
| 2026-04-26 15:12 | -1.02952 | 36.26478 | 24498 ft | 427 kts | 291° |
| 2026-04-26 15:12 | -1.01908 | 36.23690 | 24831 ft | 430 kts | 292° |
| 2026-04-26 15:12 | -1.00856 | 36.20886 | 25165 ft | 431 kts | 291° |
| 2026-04-26 15:13 | -0.99800 | 36.18076 | 25479 ft | 434 kts | 292° |
| 2026-04-26 15:13 | -0.98737 | 36.15243 | 25800 ft | 436 kts | 292° |
| 2026-04-26 15:13 | -0.97669 | 36.12404 | 26130 ft | 438 kts | 291° |
| 2026-04-26 15:13 | -0.96594 | 36.09550 | 26434 ft | 440 kts | 292° |
| 2026-04-26 15:14 | -0.95514 | 36.06685 | 26728 ft | 442 kts | 292° |
| 2026-04-26 15:14 | -0.94429 | 36.03797 | 27032 ft | 444 kts | 292° |
| 2026-04-26 15:14 | -0.93346 | 36.00904 | 27340 ft | 445 kts | 292° |
| 2026-04-26 15:14 | -0.92269 | 35.98040 | 27623 ft | 447 kts | 291° |
| 2026-04-26 15:15 | -0.91169 | 35.95127 | 27930 ft | 449 kts | 291° |
| 2026-04-26 15:15 | -0.90067 | 35.92206 | 28223 ft | 450 kts | 291° |
| 2026-04-26 15:15 | -0.88961 | 35.89269 | 28514 ft | 452 kts | 291° |
| 2026-04-26 15:15 | -0.87860 | 35.86330 | 28793 ft | 454 kts | 291° |
| 2026-04-26 15:16 | -0.86748 | 35.83365 | 29074 ft | 456 kts | 291° |
| 2026-04-26 15:16 | -0.85628 | 35.80393 | 29367 ft | 458 kts | 291° |
| 2026-04-26 15:16 | -0.84502 | 35.77408 | 29655 ft | 460 kts | 291° |
| 2026-04-26 15:16 | -0.83373 | 35.74418 | 29948 ft | 462 kts | 291° |
| 2026-04-26 15:17 | -0.82252 | 35.71446 | 30221 ft | 464 kts | 291° |
| 2026-04-26 15:17 | -0.81483 | 35.69407 | 30377 ft | 465 kts | 291° |
| 2026-04-26 15:17 | -0.79970 | 35.65393 | 30689 ft | 467 kts | 291° |
| 2026-04-26 15:17 | -0.78826 | 35.62349 | 30901 ft | 469 kts | 291° |
| 2026-04-26 15:18 | -0.77679 | 35.59293 | 31181 ft | 469 kts | 291° |
| 2026-04-26 15:18 | -0.76535 | 35.56242 | 31511 ft | 469 kts | 291° |
| 2026-04-26 15:18 | -0.75393 | 35.53193 | 31823 ft | 468 kts | 291° |
| 2026-04-26 15:18 | -0.74249 | 35.50146 | 32164 ft | 468 kts | 291° |
| 2026-04-26 15:19 | -0.73106 | 35.47106 | 32502 ft | 467 kts | 291° |
| 2026-04-26 15:19 | -0.71965 | 35.44075 | 32840 ft | 466 kts | 291° |
| 2026-04-26 15:19 | -0.70824 | 35.41049 | 33193 ft | 466 kts | 292° |
| 2026-04-26 15:19 | -0.69699 | 35.38068 | 33536 ft | 465 kts | 292° |
| 2026-04-26 15:20 | -0.68557 | 35.35044 | 33883 ft | 464 kts | 292° |
| 2026-04-26 15:20 | -0.67415 | 35.32023 | 34034 ft | 464 kts | 292° |
| 2026-04-26 15:20 | -0.65157 | 35.26025 | 34065 ft | 460 kts | 292° |
| 2026-04-26 15:21 | -0.62909 | 35.20047 | 34055 ft | 459 kts | 292° |
| 2026-04-26 15:21 | -0.60660 | 35.14066 | 34035 ft | 460 kts | 292° |
| 2026-04-26 15:22 | -0.58430 | 35.08126 | 34035 ft | 460 kts | 292° |
| 2026-04-26 15:22 | -0.56179 | 35.02144 | 34025 ft | 460 kts | 292° |
| 2026-04-26 15:23 | -0.53927 | 34.96160 | 34032 ft | 460 kts | 292° |
| 2026-04-26 15:23 | -0.51673 | 34.90172 | 34022 ft | 460 kts | 292° |
| 2026-04-26 15:24 | -0.49431 | 34.84234 | 34005 ft | 460 kts | 292° |
| 2026-04-26 15:24 | -0.47174 | 34.78254 | 33991 ft | 460 kts | 292° |
| 2026-04-26 15:25 | -0.45311 | 34.73286 | 33978 ft | 460 kts | 292° |
| 2026-04-26 15:25 | -0.42675 | 34.66280 | 33969 ft | 461 kts | 292° |
| 2026-04-26 15:26 | -0.40425 | 34.60312 | 33964 ft | 462 kts | 292° |
| 2026-04-26 15:26 | -0.38156 | 34.54299 | 33951 ft | 464 kts | 292° |
| 2026-04-26 15:27 | -0.35879 | 34.48243 | 33945 ft | 466 kts | 292° |
| 2026-04-26 15:27 | -0.33595 | 34.42171 | 33945 ft | 467 kts | 292° |
| 2026-04-26 15:28 | -0.31307 | 34.36086 | 33943 ft | 469 kts | 292° |
| 2026-04-26 15:28 | -0.29025 | 34.30026 | 33846 ft | 469 kts | 292° |
| 2026-04-26 15:29 | -0.27873 | 34.26971 | 33104 ft | 470 kts | 292° |
| 2026-04-26 15:29 | -0.26724 | 34.23925 | 32305 ft | 465 kts | 292° |
| 2026-04-26 15:29 | -0.24484 | 34.17969 | 30649 ft | 452 kts | 291° |
| 2026-04-26 15:30 | -0.22310 | 34.12198 | 28926 ft | 439 kts | 291° |
| 2026-04-26 15:30 | -0.21247 | 34.09379 | 28053 ft | 434 kts | 291° |
| 2026-04-26 15:30 | -0.20190 | 34.06579 | 27193 ft | 428 kts | 291° |
| 2026-04-26 15:31 | -0.19146 | 34.03809 | 26404 ft | 423 kts | 291° |
| 2026-04-26 15:31 | -0.17093 | 33.98365 | 24896 ft | 415 kts | 292° |
| 2026-04-26 15:31 | -0.16039 | 33.95693 | 24195 ft | 410 kts | 293° |
| 2026-04-26 15:32 | -0.14203 | 33.91374 | 22963 ft | 403 kts | 295° |
| 2026-04-26 15:32 | -0.12704 | 33.87968 | 21887 ft | 397 kts | 295° |
| 2026-04-26 15:32 | -0.11599 | 33.85452 | 21251 ft | 396 kts | 294° |
| 2026-04-26 15:33 | -0.10523 | 33.82975 | 20837 ft | 393 kts | 294° |
| 2026-04-26 15:33 | -0.09448 | 33.80476 | 20470 ft | 389 kts | 294° |
| 2026-04-26 15:33 | -0.08392 | 33.78002 | 20043 ft | 386 kts | 294° |
| 2026-04-26 15:33 | -0.07344 | 33.75540 | 19600 ft | 384 kts | 294° |
| 2026-04-26 15:34 | -0.06299 | 33.73086 | 19184 ft | 382 kts | 294° |
| 2026-04-26 15:34 | -0.05267 | 33.70664 | 18634 ft | 376 kts | 294° |
| 2026-04-26 15:34 | -0.04244 | 33.68272 | 18010 ft | 371 kts | 294° |
| 2026-04-26 15:34 | -0.03230 | 33.65905 | 17554 ft | 369 kts | 294° |
| 2026-04-26 15:35 | -0.02224 | 33.63559 | 17119 ft | 367 kts | 294° |
| 2026-04-26 15:35 | -0.01230 | 33.61251 | 16691 ft | 365 kts | 294° |
| 2026-04-26 15:35 | -0.00231 | 33.58930 | 16264 ft | 363 kts | 294° |
| 2026-04-26 15:35 | 0.00760 | 33.56618 | 15838 ft | 361 kts | 294° |
| 2026-04-26 15:36 | 0.01743 | 33.54316 | 15444 ft | 358 kts | 293° |
| 2026-04-26 15:36 | 0.02702 | 33.52036 | 15033 ft | 356 kts | 290° |
| 2026-04-26 15:36 | 0.03456 | 33.49703 | 14800 ft | 348 kts | 288° |
| 2026-04-26 15:36 | 0.04173 | 33.47438 | 14693 ft | 336 kts | 288° |
| 2026-04-26 15:37 | 0.04871 | 33.45238 | 14566 ft | 331 kts | 288° |
| 2026-04-26 15:37 | 0.05566 | 33.43054 | 14437 ft | 329 kts | 288° |
| 2026-04-26 15:37 | 0.06248 | 33.40907 | 14309 ft | 328 kts | 288° |
| 2026-04-26 15:37 | 0.06942 | 33.38735 | 14181 ft | 328 kts | 288° |
| 2026-04-26 15:38 | 0.07633 | 33.36570 | 14053 ft | 327 kts | 288° |
| 2026-04-26 15:38 | 0.08322 | 33.34407 | 13923 ft | 327 kts | 288° |
| 2026-04-26 15:38 | 0.09009 | 33.32245 | 13793 ft | 325 kts | 288° |
| 2026-04-26 15:38 | 0.09690 | 33.30095 | 13654 ft | 325 kts | 288° |
| 2026-04-26 15:39 | 0.10371 | 33.27950 | 13525 ft | 323 kts | 288° |
| 2026-04-26 15:39 | 0.11051 | 33.25812 | 13399 ft | 323 kts | 288° |
| 2026-04-26 15:39 | 0.11724 | 33.23699 | 13277 ft | 323 kts | 287° |
| 2026-04-26 15:39 | 0.12180 | 33.22263 | 13189 ft | 321 kts | 287° |
| 2026-04-26 15:40 | 0.13077 | 33.19448 | 13019 ft | 320 kts | 288° |
| 2026-04-26 15:40 | 0.13751 | 33.17334 | 12891 ft | 320 kts | 288° |
| 2026-04-26 15:40 | 0.14426 | 33.15219 | 12769 ft | 319 kts | 287° |
| 2026-04-26 15:40 | 0.15099 | 33.13108 | 12636 ft | 319 kts | 287° |
| 2026-04-26 15:41 | 0.15772 | 33.10997 | 12517 ft | 318 kts | 287° |
| 2026-04-26 15:41 | 0.16443 | 33.08894 | 12389 ft | 317 kts | 287° |
| 2026-04-26 15:41 | 0.17101 | 33.06829 | 12267 ft | 317 kts | 287° |
| 2026-04-26 15:41 | 0.17767 | 33.04731 | 12150 ft | 316 kts | 287° |
| 2026-04-26 15:42 | 0.18430 | 33.02639 | 12025 ft | 316 kts | 287° |
| 2026-04-26 15:42 | 0.19092 | 33.00549 | 11898 ft | 315 kts | 287° |
| 2026-04-26 15:42 | 0.19754 | 32.98463 | 11772 ft | 315 kts | 287° |
| 2026-04-26 15:42 | 0.20416 | 32.96383 | 11648 ft | 313 kts | 287° |
| 2026-04-26 15:43 | 0.21075 | 32.94314 | 11528 ft | 312 kts | 287° |
| 2026-04-26 15:43 | 0.21733 | 32.92243 | 11410 ft | 312 kts | 287° |
| 2026-04-26 15:43 | 0.23036 | 32.88146 | 11168 ft | 311 kts | 287° |
| 2026-04-26 15:44 | 0.23689 | 32.86091 | 11043 ft | 310 kts | 287° |
| 2026-04-26 15:44 | 0.24993 | 32.81989 | 10805 ft | 309 kts | 287° |
| 2026-04-26 15:44 | 0.25643 | 32.79941 | 10681 ft | 309 kts | 287° |
| 2026-04-26 15:45 | 0.26947 | 32.75856 | 10443 ft | 308 kts | 287° |
| 2026-04-26 15:45 | 0.27597 | 32.73823 | 10321 ft | 307 kts | 287° |
| 2026-04-26 15:46 | 0.28870 | 32.69792 | 10087 ft | 306 kts | 283° |
| 2026-04-26 15:46 | 0.29157 | 32.67700 | 9938 ft | 303 kts | 269° |
| 2026-04-26 15:46 | 0.28960 | 32.65615 | 9604 ft | 301 kts | 261° |
| 2026-04-26 15:46 | 0.28760 | 32.64250 | 9410 ft | 299 kts | 261° |
| 2026-04-26 15:47 | 0.28368 | 32.61520 | 9019 ft | 296 kts | 261° |
| 2026-04-26 15:47 | 0.27795 | 32.57469 | 8443 ft | 293 kts | 261° |
| 2026-04-26 15:47 | 0.27521 | 32.55501 | 8296 ft | 285 kts | 261° |
| 2026-04-26 15:48 | 0.27243 | 32.53519 | 7931 ft | 284 kts | 261° |
| 2026-04-26 15:48 | 0.26979 | 32.51625 | 7687 ft | 271 kts | 261° |
| 2026-04-26 15:48 | 0.26727 | 32.49822 | 7576 ft | 258 kts | 261° |
| 2026-04-26 15:48 | 0.26479 | 32.48056 | 7462 ft | 255 kts | 261° |
| 2026-04-26 15:49 | 0.26230 | 32.46306 | 7319 ft | 254 kts | 260° |
| 2026-04-26 15:49 | 0.25735 | 32.44630 | 7288 ft | 252 kts | 242° |
| 2026-04-26 15:49 | 0.24745 | 32.43200 | 7199 ft | 250 kts | 224° |
| 2026-04-26 15:49 | 0.23395 | 32.42175 | 7044 ft | 241 kts | 206° |
| 2026-04-26 15:50 | 0.21838 | 32.41629 | 6827 ft | 236 kts | 188° |
| 2026-04-26 15:50 | 0.20213 | 32.41585 | 6573 ft | 234 kts | 172° |
| 2026-04-26 15:50 | 0.18625 | 32.41805 | 6292 ft | 233 kts | 172° |
| 2026-04-26 15:50 | 0.17034 | 32.42029 | 5989 ft | 227 kts | 172° |
| 2026-04-26 15:51 | 0.15506 | 32.42241 | 5711 ft | 217 kts | 172° |
| 2026-04-26 15:51 | 0.14055 | 32.42443 | 5475 ft | 201 kts | 172° |
| 2026-04-26 15:51 | 0.12732 | 32.42627 | 5197 ft | 183 kts | 172° |
| 2026-04-26 15:51 | 0.11538 | 32.42792 | 5001 ft | 163 kts | 172° |
| 2026-04-26 15:52 | 0.10446 | 32.42945 | 4765 ft | 155 kts | 172° |
| 2026-04-26 15:52 | 0.09401 | 32.43091 | 4581 ft | 151 kts | 172° |
| 2026-04-26 15:52 | 0.08359 | 32.43238 | 4371 ft | 151 kts | 173° |
| 2026-04-26 15:52 | 0.07672 | 32.43333 | 4209 ft | 151 kts | 173° |
| 2026-04-26 15:53 | 0.06305 | 32.43523 | 3939 ft | 151 kts | 173° |
| 2026-04-26 15:53 | 0.05259 | 32.43662 | 3796 ft | 149 kts | 173° |
| 2026-04-26 15:53 | 0.04384 | 32.43782 | 3785 ft | 104 kts | 172° |
| 2026-04-26 15:53 | 0.03782 | 32.43867 | 3784 ft | 73 kts | 171° |
| 2026-04-26 15:54 | 0.03399 | 32.43919 | 3786 ft | 40 kts | 172° |
| 2026-04-26 15:54 | 0.03132 | 32.43956 | 3784 ft | 38 kts | 172° |
| 2026-04-26 15:54 | 0.02939 | 32.44016 | 3786 ft | 26 kts | 140° |
| 2026-04-26 15:54 | 0.02834 | 32.44101 | 3784 ft | 14 kts | 139° |
| 2026-04-26 15:55 | 0.02861 | 32.44169 | 3782 ft | 15 kts | 356° |
| 2026-04-26 15:55 | 0.02992 | 32.44150 | 3780 ft | 21 kts | 352° |
| 2026-04-26 15:55 | 0.03139 | 32.44130 | 3784 ft | 22 kts | 352° |
| 2026-04-26 15:55 | 0.03295 | 32.44108 | 3784 ft | 23 kts | 352° |
| 2026-04-26 15:56 | 0.03461 | 32.44084 | 3781 ft | 25 kts | 352° |
| 2026-04-26 15:56 | 0.03635 | 32.44061 | 3783 ft | 26 kts | 353° |
| 2026-04-26 15:56 | 0.03819 | 32.44035 | 3780 ft | 27 kts | 352° |
| 2026-04-26 15:56 | 0.04007 | 32.44009 | 3780 ft | 24 kts | 351° |
| 2026-04-26 15:57 | 0.04137 | 32.43990 | 3782 ft | 13 kts | 352° |
| 2026-04-26 15:57 | 0.04206 | 32.44033 | 3780 ft | 14 kts | 77° |
| 2026-04-26 15:57 | 0.04235 | 32.44126 | 3783 ft | 14 kts | 40° |
| 2026-04-26 15:57 | 0.04299 | 32.44131 | 3780 ft | 15 kts | 352° |
| 2026-04-26 15:58 | 0.04442 | 32.44111 | 3780 ft | 16 kts | 352° |
| 2026-04-26 15:58 | 0.04504 | 32.44104 | 3780 ft | 6 kts | 10° |
| 2026-04-26 15:58 | 0.04524 | 32.44144 | 3780 ft | 7 kts | 81° |
| 2026-04-26 15:58 | 0.04530 | 32.44182 | 3785 ft | 4 kts | 81° |
| 2026-04-26 15:59 | 0.04533 | 32.44200 | 3780 ft | 0 kts | 82° |